Time;durP1;ratioP1;P1;durP2;ratioP2;P2;SDS_P1;SDS_P2;PMS_P1;PMS_P2;Temp;Humidity;BMP_temperature;BMP_pressure;BME280_temperature;BME280_humidity;BME280_pressure;Samples;Min_cycle;Max_cycle;Signal;HPM_P1;HPM_P2
2023/05/03 00:00:16;;;;;;;5.05;3.22;;;;;;;19.11;60.24;99834.59;4490873;31;35554;-62
2023/05/03 00:02:43;;;;;;;6.18;3.10;;;;;;;19.03;60.72;99838.12;4494791;31;35283;-61
2023/05/03 00:05:12;;;;;;;4.87;3.47;;;;;;;19.12;60.80;99839.00;4492635;31;35206;-62
2023/05/03 00:07:42;;;;;;;5.47;3.37;;;;;;;19.07;60.51;99837.66;4493318;31;33608;-65
2023/05/03 00:10:11;;;;;;;4.40;2.85;;;;;;;19.00;60.45;99839.31;4494874;31;33581;-61
2023/05/03 00:12:40;;;;;;;3.92;2.62;;;;;;;19.02;60.50;99836.44;4486841;31;33658;-61
2023/05/03 00:15:08;;;;;;;8.90;3.50;;;;;;;18.97;60.91;99838.78;4485227;31;34921;-61
2023/05/03 00:17:36;;;;;;;4.87;2.78;;;;;;;18.98;60.78;99835.09;4489151;31;33432;-61
2023/05/03 00:20:05;;;;;;;4.28;2.83;;;;;;;18.82;61.24;99831.31;4496346;31;33797;-61
2023/05/03 00:22:33;;;;;;;5.15;3.67;;;;;;;18.87;61.23;99841.66;4491302;31;34102;-61
2023/05/03 00:25:01;;;;;;;7.60;3.20;;;;;;;18.98;60.85;99832.38;4488520;31;33973;-61
2023/05/03 00:27:29;;;;;;;7.78;3.58;;;;;;;19.07;60.57;99825.94;4490627;31;32358;-60
2023/05/03 00:29:57;;;;;;;5.10;3.37;;;;;;;19.03;60.48;99833.53;4494883;31;33349;-61
2023/05/03 00:32:25;;;;;;;6.72;2.85;;;;;;;19.14;60.49;99832.41;4488459;31;35050;-60
2023/05/03 00:34:56;;;;;;;4.75;2.65;;;;;;;19.12;60.33;99830.84;4486939;31;34136;-61
2023/05/03 00:37:24;;;;;;;3.72;2.42;;;;;;;19.09;60.39;99834.75;4486867;31;33577;-61
2023/05/03 00:39:52;;;;;;;6.75;3.90;;;;;;;19.04;60.47;99831.72;4495667;31;34066;-61
2023/05/03 00:42:19;;;;;;;5.30;3.35;;;;;;;19.04;60.55;99831.72;4487015;31;34984;-61
2023/05/03 00:44:46;;;;;;;4.28;2.72;;;;;;;18.98;60.71;99835.09;4488943;31;34213;-61
2023/05/03 00:47:15;;;;;;;4.25;2.42;;;;;;;19.07;60.31;99844.94;4491736;31;32412;-62
2023/05/03 00:49:43;;;;;;;2.80;2.05;;;;;;;19.11;60.19;99842.75;4487075;31;34870;-63
2023/05/03 00:52:10;;;;;;;5.15;3.50;;;;;;;19.12;60.31;99844.41;4485608;31;32978;-62
2023/05/03 00:54:38;;;;;;;4.95;2.45;;;;;;;19.15;60.24;99850.34;4492558;31;34118;-63
2023/05/03 00:57:06;;;;;;;3.37;2.10;;;;;;;19.08;60.20;99850.19;4497681;31;33495;-62
2023/05/03 00:59:33;;;;;;;5.97;2.97;;;;;;;18.99;60.68;99850.34;4490903;31;33866;-62
2023/05/03 01:02:01;;;;;;;6.62;3.53;;;;;;;19.04;60.44;99850.69;4487841;31;34885;-62
2023/05/03 01:04:29;;;;;;;6.85;3.65;;;;;;;19.10;60.09;99850.03;4495910;31;34147;-63
2023/05/03 01:07:02;;;;;;;5.32;3.47;;;;;;;19.06;60.25;99863.06;4492626;31;33970;-63
2023/05/03 01:09:40;;;;;;;6.93;3.60;;;;;;;18.92;60.54;99863.72;4482793;31;33821;-62
2023/05/03 01:12:10;;;;;;;5.40;2.90;;;;;;;18.98;60.56;99860.34;4487709;31;33562;-63
2023/05/03 01:15:21;;;;;;;4.45;2.45;;;;;;;19.09;60.20;99861.88;4492578;31;32591;-63
2023/05/03 01:17:50;;;;;;;4.20;2.92;;;;;;;18.99;60.55;99866.59;4479825;31;33604;-64
2023/05/03 01:20:23;;;;;;;4.62;3.67;;;;;;;19.03;60.38;99863.37;4485891;31;33398;-63
2023/05/03 01:22:59;;;;;;;4.45;2.60;;;;;;;19.05;60.39;99858.66;4490500;31;33367;-62
2023/05/03 01:25:27;;;;;;;4.35;2.65;;;;;;;19.08;60.30;99865.63;4489147;31;35303;-63
2023/05/03 01:27:54;;;;;;;5.43;3.67;;;;;;;19.08;60.25;99862.91;4496088;31;33380;-63
2023/05/03 01:30:26;;;;;;;9.63;3.87;;;;;;;19.11;60.20;99865.28;4492754;31;35042;-61
2023/05/03 01:33:06;;;;;;;4.82;3.67;;;;;;;19.08;60.34;99860.19;4483018;31;33667;-61
2023/05/03 01:35:44;;;;;;;3.17;2.40;;;;;;;19.16;60.09;99864.78;4483582;31;34056;-61
2023/05/03 01:38:12;;;;;;;3.72;2.37;;;;;;;19.08;60.19;99855.59;4499917;31;34181;-62
2023/05/03 01:40:44;;;;;;;3.67;2.55;;;;;;;19.02;60.55;99858.97;4493045;31;33669;-60
2023/05/03 01:43:14;;;;;;;5.70;2.55;;;;;;;19.14;60.28;99851.38;4486711;31;33855;-61
2023/05/03 01:45:42;;;;;;;9.52;4.57;;;;;;;19.21;60.10;99857.84;4492876;31;34216;-60
2023/05/03 01:48:13;;;;;;;6.62;3.75;;;;;;;19.26;59.86;99857.31;4484879;31;33290;-62
2023/05/03 01:50:41;;;;;;;5.53;3.58;;;;;;;19.22;60.12;99850.53;4487889;31;33768;-62
2023/05/03 01:53:08;;;;;;;5.65;3.25;;;;;;;19.23;59.96;99850.38;4497445;31;35070;-61
2023/05/03 01:55:36;;;;;;;4.47;2.83;;;;;;;18.94;61.13;99852.69;4488657;31;33821;-61
2023/05/03 01:58:03;;;;;;;5.12;3.05;;;;;;;19.02;60.95;99855.44;4488529;31;33411;-61
2023/05/03 02:00:31;;;;;;;4.45;2.90;;;;;;;19.12;60.45;99849.84;4487202;31;34935;-62
2023/05/03 02:02:59;;;;;;;7.87;4.00;;;;;;;19.11;60.46;99840.87;4492003;31;34583;-63
2023/05/03 02:05:26;;;;;;;6.60;3.70;;;;;;;19.14;60.31;99842.41;4495590;31;34633;-64
2023/05/03 02:07:54;;;;;;;6.35;4.00;;;;;;;19.09;60.50;99848.31;4490282;31;33611;-63
2023/05/03 02:10:22;;;;;;;5.50;3.08;;;;;;;19.14;60.19;99847.81;4486975;31;34020;-62
2023/05/03 02:12:49;;;;;;;5.57;2.92;;;;;;;19.12;60.30;99839.84;4493251;31;32257;-63
2023/05/03 02:15:18;;;;;;;6.45;3.53;;;;;;;19.06;60.64;99841.34;4493172;31;35235;-63
2023/05/03 02:17:48;;;;;;;6.40;3.42;;;;;;;19.06;60.60;99837.78;4486398;31;34523;-63
2023/05/03 02:20:16;;;;;;;7.43;3.75;;;;;;;19.02;60.52;99839.16;4493647;31;33172;-64
2023/05/03 02:22:43;;;;;;;4.70;2.92;;;;;;;19.07;60.79;99828.66;4496775;31;33915;-62
2023/05/03 02:25:11;;;;;;;5.47;3.53;;;;;;;19.14;60.55;99829.69;4491718;31;33742;-62
2023/05/03 02:27:39;;;;;;;5.68;3.83;;;;;;;19.18;60.34;99828.31;4485685;31;32962;-61
2023/05/03 02:30:07;;;;;;;5.07;3.50;;;;;;;19.24;60.10;99837.66;4489001;31;34779;-62
2023/05/03 02:32:37;;;;;;;4.93;3.15;;;;;;;19.27;60.19;99832.75;4494951;31;33362;-61
2023/05/03 02:35:06;;;;;;;5.97;4.12;;;;;;;19.29;60.31;99833.44;4487199;31;35283;-61
2023/05/03 02:37:34;;;;;;;5.70;3.00;;;;;;;19.33;60.05;99828.50;4492516;31;34242;-61
2023/05/03 02:40:04;;;;;;;8.02;4.60;;;;;;;19.28;60.08;99820.84;4488569;31;33632;-61
2023/05/03 02:42:32;;;;;;;4.80;2.95;;;;;;;19.31;60.10;99819.69;4490490;31;34065;-61
2023/05/03 02:45:00;;;;;;;8.50;3.75;;;;;;;19.24;59.94;99827.66;4495484;31;34010;-61
2023/05/03 02:47:29;;;;;;;5.47;3.65;;;;;;;19.25;59.79;99826.63;4492291;31;33293;-61
2023/05/03 02:49:56;;;;;;;8.10;3.55;;;;;;;19.12;60.20;99817.28;4497763;31;33789;-61
2023/05/03 02:52:24;;;;;;;4.90;2.83;;;;;;;19.11;60.19;99816.44;4488487;31;35154;-60
2023/05/03 02:54:51;;;;;;;7.07;3.65;;;;;;;18.97;60.59;99817.09;4491082;31;34958;-61
2023/05/03 02:57:19;;;;;;;6.78;3.58;;;;;;;19.04;60.31;99818.16;4491187;31;34368;-61
2023/05/03 02:59:46;;;;;;;5.80;3.22;;;;;;;19.03;60.30;99821.84;4490525;31;34502;-61
2023/05/03 03:02:14;;;;;;;5.47;3.12;;;;;;;19.05;60.35;99823.38;4488609;31;33409;-62
2023/05/03 03:04:41;;;;;;;5.80;3.75;;;;;;;19.14;60.00;99812.56;4487919;31;33315;-63
2023/05/03 03:07:09;;;;;;;4.00;2.78;;;;;;;19.14;60.16;99812.56;4493515;31;33486;-62
2023/05/03 03:09:37;;;;;;;5.62;3.45;;;;;;;19.09;60.33;99819.31;4486122;31;32174;-62
2023/05/03 03:12:05;;;;;;;6.78;4.05;;;;;;;18.84;60.69;99813.03;4487751;31;34718;-62
2023/05/03 03:14:33;;;;;;;4.85;3.37;;;;;;;18.97;60.56;99811.66;4492900;31;35123;-62
2023/05/03 03:17:03;;;;;;;4.75;3.10;;;;;;;19.04;60.34;99813.56;4494254;31;32183;-61
2023/05/03 03:19:31;;;;;;;7.37;3.35;;;;;;;19.09;60.13;99813.03;4488418;31;33503;-61
2023/05/03 03:21:58;;;;;;;6.80;4.32;;;;;;;19.11;60.01;99810.19;4488042;31;36329;-61
2023/05/03 03:24:26;;;;;;;4.97;2.90;;;;;;;18.98;60.41;99816.94;4492964;31;33757;-60
2023/05/03 03:26:53;;;;;;;5.85;2.85;;;;;;;19.05;60.23;99814.41;4494749;31;34793;-62
2023/05/03 03:29:21;;;;;;;5.37;3.15;;;;;;;19.11;60.04;99821.03;4489737;31;34455;-62
2023/05/03 03:31:49;;;;;;;9.68;3.53;;;;;;;19.16;59.78;99818.66;4486818;31;34090;-63
2023/05/03 03:34:17;;;;;;;6.22;3.55;;;;;;;19.18;59.79;99828.31;4495073;31;34110;-62
2023/05/03 03:36:45;;;;;;;5.50;3.28;;;;;;;19.16;60.10;99827.63;4494296;31;33386;-62
2023/05/03 03:39:13;;;;;;;4.82;3.30;;;;;;;19.14;60.11;99821.53;4487657;31;33771;-62
2023/05/03 03:41:43;;;;;;;8.23;3.42;;;;;;;19.27;59.59;99823.75;4497136;31;33016;-63
2023/05/03 03:44:11;;;;;;;5.80;3.83;;;;;;;19.32;59.56;99818.66;4494974;31;33897;-62
2023/05/03 03:46:39;;;;;;;7.47;3.70;;;;;;;19.30;59.85;99828.84;4486335;31;34602;-62
2023/05/03 03:49:07;;;;;;;6.07;3.75;;;;;;;19.33;59.69;99817.66;4490841;31;32714;-62
2023/05/03 03:51:35;;;;;;;7.97;3.92;;;;;;;19.13;60.39;99825.25;4487696;31;34009;-62
2023/05/03 03:54:03;;;;;;;6.07;3.12;;;;;;;19.17;60.00;99829.34;4494362;31;33773;-62
2023/05/03 03:56:32;;;;;;;5.07;3.08;;;;;;;19.18;59.87;99839.16;4488696;31;35049;-62
2023/05/03 03:58:59;;;;;;;5.47;3.83;;;;;;;19.11;60.15;99837.31;4486328;31;33857;-62
2023/05/03 04:01:27;;;;;;;6.60;4.07;;;;;;;19.21;59.83;99833.41;4487015;31;34092;-62
2023/05/03 04:03:55;;;;;;;5.50;3.35;;;;;;;19.26;59.73;99843.75;4487520;31;34232;-62
2023/05/03 04:06:23;;;;;;;6.22;3.60;;;;;;;18.70;60.98;99851.56;4496114;31;33369;-62
2023/05/03 04:08:50;;;;;;;4.50;2.78;;;;;;;18.89;60.73;99850.47;4493074;31;35738;-62
2023/05/03 04:11:20;;;;;;;6.45;3.87;;;;;;;19.11;60.11;99853.59;4496702;31;33965;-63
2023/05/03 04:13:48;;;;;;;5.78;3.50;;;;;;;19.14;60.30;99851.38;4487947;31;33725;-62
2023/05/03 04:16:15;;;;;;;7.55;4.30;;;;;;;19.16;60.24;99853.91;4491698;31;34507;-62
2023/05/03 04:18:44;;;;;;;5.68;3.10;;;;;;;19.11;60.22;99859.84;4489738;31;33885;-62
2023/05/03 04:21:11;;;;;;;4.07;2.83;;;;;;;19.12;60.27;99856.13;4491823;31;91046;-62
2023/05/03 04:23:40;;;;;;;10.93;5.55;;;;;;;19.09;60.26;99865.44;4493379;31;34324;-62
2023/05/03 04:26:09;;;;;;;6.87;3.25;;;;;;;19.05;60.29;99861.38;4487388;31;33532;-62
2023/05/03 04:28:50;;;;;;;5.20;3.58;;;;;;;19.05;60.30;99868.66;4481314;31;34857;-63
2023/05/03 04:31:19;;;;;;;6.87;4.20;;;;;;;19.17;60.06;99870.03;4484551;31;32644;-62
2023/05/03 04:33:47;;;;;;;5.25;2.97;;;;;;;19.13;59.75;99876.78;4494007;31;33615;-61
2023/05/03 04:36:15;;;;;;;5.90;3.53;;;;;;;19.15;59.75;99869.34;4496624;31;32461;-61
2023/05/03 04:38:43;;;;;;;5.95;3.42;;;;;;;19.20;59.58;99877.00;4492320;31;34271;-61
2023/05/03 04:41:11;;;;;;;8.30;4.30;;;;;;;19.22;59.75;99878.50;4494495;31;34072;-61
2023/05/03 04:43:42;;;;;;;9.38;4.95;;;;;;;19.24;59.44;99881.06;4492031;31;33756;-61
2023/05/03 04:46:10;;;;;;;5.70;3.62;;;;;;;19.23;59.61;99882.06;4483557;31;33549;-62
2023/05/03 04:48:38;;;;;;;6.45;3.97;;;;;;;19.12;60.12;99885.97;4490477;31;33425;-61
2023/05/03 04:51:05;;;;;;;4.85;3.58;;;;;;;19.18;60.15;99889.88;4492505;31;35166;-61
2023/05/03 04:53:33;;;;;;;6.75;4.03;;;;;;;19.14;60.28;99892.06;4493048;31;35024;-61
2023/05/03 04:56:01;;;;;;;6.60;3.65;;;;;;;19.20;60.02;99888.69;4489377;31;34598;-61
2023/05/03 04:58:30;;;;;;;5.15;3.60;;;;;;;19.16;60.10;99897.31;4486455;31;33655;-61
2023/05/03 05:00:58;;;;;;;9.23;4.80;;;;;;;19.43;59.34;99901.63;4481908;31;34793;-61
2023/05/03 05:03:26;;;;;;;5.32;3.67;;;;;;;19.36;59.55;99908.72;4488782;31;32607;-62
2023/05/03 05:05:54;;;;;;;9.15;4.68;;;;;;;19.33;59.90;99904.50;4483026;31;33302;-61
2023/05/03 05:08:22;;;;;;;7.10;4.72;;;;;;;19.29;60.59;99900.41;4491709;31;34988;-61
2023/05/03 05:10:50;;;;;;;5.62;4.12;;;;;;;19.16;60.95;99914.44;4485463;31;35178;-61
2023/05/03 05:13:18;;;;;;;6.65;4.87;;;;;;;19.28;61.03;99912.28;4485609;31;33988;-61
2023/05/03 05:15:46;;;;;;;4.82;3.55;;;;;;;19.47;60.63;99913.84;4486268;31;33693;-61
2023/05/03 05:18:13;;;;;;;8.52;3.90;;;;;;;19.49;60.75;99909.94;4492790;31;33288;-61
2023/05/03 05:20:41;;;;;;;3.67;2.78;;;;;;;19.50;60.76;99914.34;4480699;31;33817;-61
2023/05/03 05:23:09;;;;;;;4.30;2.53;;;;;;;19.47;61.08;99909.25;4484781;31;35192;-61
2023/05/03 05:25:37;;;;;;;5.85;2.67;;;;;;;19.58;60.88;99907.22;4495497;31;34682;-61
2023/05/03 05:28:04;;;;;;;5.12;2.92;;;;;;;19.66;60.51;99907.28;4491990;31;34738;-61
2023/05/03 05:30:33;;;;;;;5.22;2.83;;;;;;;19.74;60.50;99916.28;4487547;31;34022;-61
2023/05/03 05:33:02;;;;;;;8.23;3.60;;;;;;;19.57;61.26;99916.38;4486947;31;33917;-61
2023/05/03 05:35:31;;;;;;;5.12;3.37;;;;;;;19.71;60.93;99915.72;4491055;31;33558;-61
2023/05/03 05:37:59;;;;;;;7.45;3.72;;;;;;;19.86;60.41;99911.31;4495628;31;33568;-61
2023/05/03 05:40:28;;;;;;;8.02;3.90;;;;;;;19.67;60.95;99926.09;4492927;31;35207;-61
2023/05/03 05:42:56;;;;;;;6.20;3.67;;;;;;;19.84;60.32;99924.25;4489746;31;34832;-62
2023/05/03 05:45:24;;;;;;;5.60;3.65;;;;;;;19.73;60.53;99930.00;4495068;31;34185;-61
2023/05/03 05:47:52;;;;;;;10.23;3.55;;;;;;;19.78;60.63;99922.22;4495209;31;33502;-61
2023/05/03 05:50:20;;;;;;;7.35;4.10;;;;;;;19.86;60.18;99926.78;4495226;31;34083;-61
2023/05/03 05:52:51;;;;;;;5.40;2.90;;;;;;;19.88;60.06;99928.31;4490330;31;33699;-61
2023/05/03 05:55:20;;;;;;;3.97;2.78;;;;;;;19.72;60.07;99923.72;4492374;31;33430;-63
2023/05/03 05:57:48;;;;;;;5.43;2.95;;;;;;;19.63;59.88;99929.28;4491954;31;33814;-62
2023/05/03 06:00:18;;;;;;;7.78;3.40;;;;;;;19.54;60.36;99933.84;4486134;31;33846;-62
2023/05/03 06:02:46;;;;;;;8.10;3.40;;;;;;;19.50;60.74;99936.06;4494615;31;35215;-62
2023/05/03 06:05:14;;;;;;;5.65;3.30;;;;;;;19.61;60.07;99936.75;4496477;31;34311;-62
2023/05/03 06:07:42;;;;;;;4.22;2.75;;;;;;;19.47;60.40;99935.56;4488089;31;34051;-62
2023/05/03 06:10:10;;;;;;;4.00;3.12;;;;;;;19.64;59.46;99942.72;4497324;31;33710;-62
2023/05/03 06:12:38;;;;;;;4.80;2.75;;;;;;;19.62;58.22;99941.19;4493348;31;33997;-62
2023/05/03 06:15:06;;;;;;;5.22;3.15;;;;;;;19.65;58.45;99949.03;4496947;31;33706;-63
2023/05/03 06:17:34;;;;;;;5.40;3.75;;;;;;;19.41;59.51;99957.94;4487868;31;33834;-62
2023/05/03 06:20:03;;;;;;;14.77;3.30;;;;;;;19.47;59.46;99963.53;4489174;31;35220;-62
2023/05/03 06:22:31;;;;;;;4.80;3.20;;;;;;;19.69;59.13;99956.66;4496158;31;33596;-62
2023/05/03 06:24:59;;;;;;;3.50;2.42;;;;;;;19.87;58.69;99958.34;4493077;31;33528;-62
2023/05/03 06:27:26;;;;;;;5.57;3.28;;;;;;;19.73;59.54;99958.00;4485110;31;32779;-62
2023/05/03 06:29:54;;;;;;;4.55;2.87;;;;;;;19.83;59.36;99974.12;4498269;31;33823;-62
2023/05/03 06:32:22;;;;;;;4.87;2.60;;;;;;;19.54;60.46;99969.16;4494270;31;35214;-61
2023/05/03 06:34:51;;;;;;;5.87;3.65;;;;;;;19.65;60.32;99971.59;4496500;31;33454;-62
2023/05/03 06:37:18;;;;;;;5.28;2.80;;;;;;;19.99;59.60;99978.72;4491889;31;33905;-62
2023/05/03 06:39:46;;;;;;;7.35;3.35;;;;;;;19.89;60.21;99984.31;4492460;31;33765;-62
2023/05/03 06:42:13;;;;;;;5.57;3.80;;;;;;;19.91;60.25;99984.19;4497825;31;33711;-62
2023/05/03 06:44:41;;;;;;;5.85;3.97;;;;;;;19.61;61.28;99983.75;4492127;31;32771;-62
2023/05/03 06:47:09;;;;;;;6.45;4.75;;;;;;;19.69;61.44;99989.25;4491849;31;34671;-62
2023/05/03 06:49:37;;;;;;;6.60;4.15;;;;;;;19.84;60.74;99984.00;4487043;31;35864;-62
2023/05/03 06:52:05;;;;;;;7.28;3.92;;;;;;;19.92;60.65;99986.72;4495677;31;32870;-63
2023/05/03 06:54:36;;;;;;;4.40;2.78;;;;;;;20.13;60.33;99990.81;4494533;31;33277;-62
2023/05/03 06:57:04;;;;;;;5.45;4.18;;;;;;;20.17;59.90;99998.44;4491437;31;33706;-62
2023/05/03 06:59:31;;;;;;;6.78;3.45;;;;;;;20.28;59.65;99988.22;4491864;31;33866;-62
2023/05/03 07:01:59;;;;;;;9.32;4.80;;;;;;;20.10;60.72;99986.56;4494089;31;32782;-62
2023/05/03 07:04:27;;;;;;;4.53;3.12;;;;;;;20.40;59.84;99984.13;4492020;31;33633;-62
2023/05/03 07:06:54;;;;;;;4.22;3.35;;;;;;;20.32;59.42;99984.13;4488698;31;33688;-62
2023/05/03 07:09:23;;;;;;;4.05;3.60;;;;;;;20.33;59.39;99994.00;4484850;31;35152;-65
2023/05/03 07:12:09;;;;;;;6.95;3.55;;;;;;;20.25;59.90;99990.25;4489457;31;34146;-63
2023/05/03 07:14:38;;;;;;;4.05;3.17;;;;;;;20.31;59.78;99990.59;4491502;31;34485;-63
2023/05/03 07:17:06;;;;;;;6.47;3.65;;;;;;;20.14;59.94;99987.06;4498761;31;33944;-62
2023/05/03 07:19:33;;;;;;;6.68;3.60;;;;;;;20.35;59.59;99992.81;4498131;31;33917;-62
2023/05/03 07:22:02;;;;;;;6.85;4.10;;;;;;;20.25;59.67;99992.13;4491350;31;34725;-62
2023/05/03 07:24:29;;;;;;;5.57;3.30;;;;;;;20.01;60.97;99999.28;4489733;31;34439;-62
2023/05/03 07:26:57;;;;;;;7.03;4.32;;;;;;;19.80;62.14;99996.19;4486062;31;32516;-63
2023/05/03 07:29:26;;;;;;;5.28;3.50;;;;;;;20.13;62.12;99988.94;4496187;31;33941;-63
2023/05/03 07:31:53;;;;;;;12.05;4.15;;;;;;;20.24;61.28;99988.56;4485005;31;34324;-62
2023/05/03 07:34:21;;;;;;;6.37;4.72;;;;;;;20.40;59.55;99981.41;4497386;31;33729;-63
2023/05/03 07:36:50;;;;;;;6.45;4.22;;;;;;;20.51;59.26;99991.06;4487027;31;33627;-62
2023/05/03 07:39:18;;;;;;;5.70;3.42;;;;;;;20.59;58.43;99985.66;4494474;31;34027;-63
2023/05/03 07:41:46;;;;;;;6.15;3.72;;;;;;;20.75;58.81;99982.91;4490970;31;33911;-63
2023/05/03 07:44:13;;;;;;;6.97;4.00;;;;;;;21.09;57.24;99982.62;4490157;31;33654;-63
2023/05/03 07:46:41;;;;;;;6.28;3.28;;;;;;;20.87;56.86;99988.81;4492427;31;34784;-63
2023/05/03 07:49:08;;;;;;;6.68;3.75;;;;;;;20.12;59.39;99989.09;4498623;31;35339;-63
2023/05/03 07:51:37;;;;;;;6.97;3.15;;;;;;;20.64;58.45;99984.13;4491592;31;33656;-62
2023/05/03 07:54:05;;;;;;;4.57;3.20;;;;;;;21.10;56.91;99986.19;4497116;31;34758;-63
2023/05/03 07:56:33;;;;;;;7.82;4.37;;;;;;;20.69;58.67;99987.16;4497702;31;35247;-63
2023/05/03 07:59:00;;;;;;;6.28;2.92;;;;;;;20.94;57.68;99993.37;4497313;31;34027;-63
2023/05/03 08:01:31;;;;;;;8.55;4.32;;;;;;;20.84;58.13;99991.88;4485989;31;33330;-63
2023/05/03 08:03:58;;;;;;;15.02;4.62;;;;;;;20.50;59.26;100000.25;4492099;31;33690;-62
2023/05/03 08:06:27;;;;;;;7.57;4.43;;;;;;;21.32;56.20;99998.16;4490415;31;33602;-63
2023/05/03 08:08:54;;;;;;;6.05;3.37;;;;;;;21.33;55.10;99997.12;4485955;31;33977;-62
2023/05/03 08:11:22;;;;;;;7.72;4.18;;;;;;;21.04;55.40;100000.50;4489578;31;34520;-63
2023/05/03 08:13:49;;;;;;;7.25;3.87;;;;;;;21.14;55.63;99998.41;4496624;31;33938;-63
2023/05/03 08:16:17;;;;;;;5.50;3.65;;;;;;;21.34;55.42;100001.53;4490833;31;34479;-63
2023/05/03 08:18:45;;;;;;;9.73;3.85;;;;;;;21.16;56.75;100005.38;4483565;32;34115;-63
2023/05/03 08:21:13;;;;;;;9.65;4.97;;;;;;;21.30;55.35;100009.22;4493328;31;33843;-63
2023/05/03 08:23:41;;;;;;;7.22;3.58;;;;;;;21.39;56.66;100010.06;4497221;31;35215;-63
2023/05/03 08:26:09;;;;;;;6.90;4.22;;;;;;;21.69;55.05;100002.03;4485725;31;35009;-63
2023/05/03 08:28:37;;;;;;;8.80;4.00;;;;;;;21.86;56.12;99999.03;4499105;31;33596;-63
2023/05/03 08:31:05;;;;;;;9.05;5.20;;;;;;;21.21;56.49;100001.25;4491179;31;33855;-63
2023/05/03 08:33:33;;;;;;;5.80;3.75;;;;;;;22.00;54.12;100005.56;4495560;31;33740;-63
2023/05/03 08:36:00;;;;;;;6.12;4.20;;;;;;;22.05;54.59;100005.00;4494651;31;32884;-63
2023/05/03 08:38:28;;;;;;;5.45;3.58;;;;;;;21.23;54.15;99997.34;4496219;31;34272;-63
2023/05/03 08:40:58;;;;;;;4.97;3.80;;;;;;;21.71;54.01;100008.16;4492475;31;34126;-63
2023/05/03 08:43:27;;;;;;;4.40;2.67;;;;;;;22.40;51.30;100006.25;4484575;31;34680;-63
2023/05/03 08:45:55;;;;;;;17.00;3.42;;;;;;;22.62;51.49;100007.25;4496958;31;33807;-63
2023/05/03 08:48:22;;;;;;;8.38;5.15;;;;;;;22.34;52.04;100009.72;4481128;31;34136;-63
2023/05/03 08:50:51;;;;;;;5.68;3.95;;;;;;;21.58;55.17;100015.06;4480944;31;34025;-63
2023/05/03 08:53:19;;;;;;;6.35;4.32;;;;;;;22.24;51.02;100007.25;4487314;31;34454;-63
2023/05/03 08:55:47;;;;;;;5.95;3.50;;;;;;;21.97;52.58;100013.25;4490267;31;35154;-63
2023/05/03 08:58:14;;;;;;;6.47;3.58;;;;;;;22.24;52.70;100014.59;4494034;31;34889;-64
2023/05/03 09:00:43;;;;;;;6.78;4.25;;;;;;;22.72;50.18;100013.25;4491790;31;34225;-63
2023/05/03 09:03:11;;;;;;;5.95;3.72;;;;;;;22.50;50.69;100015.06;4494777;31;34447;-63
2023/05/03 09:05:42;;;;;;;6.70;4.40;;;;;;;22.00;53.24;100010.19;4492230;31;33678;-63
2023/05/03 09:08:11;;;;;;;9.77;4.78;;;;;;;21.86;52.29;100018.09;4494395;31;34075;-64
2023/05/03 09:10:40;;;;;;;5.50;4.00;;;;;;;21.78;52.47;100009.13;4491950;31;34427;-63
2023/05/03 09:13:09;;;;;;;5.03;3.35;;;;;;;21.72;52.20;100009.84;4488302;31;33603;-63
2023/05/03 09:15:37;;;;;;;5.32;3.37;;;;;;;21.89;52.33;100021.47;4486635;31;34109;-63
2023/05/03 09:18:20;;;;;;;6.15;3.55;;;;;;;21.87;51.70;100019.78;4495477;31;33683;-63
2023/05/03 09:20:50;;;;;;;7.47;3.83;;;;;;;21.94;52.21;100019.06;4485498;32;34224;-63
2023/05/03 09:23:25;;;;;;;6.35;3.90;;;;;;;21.98;51.75;100017.66;4495996;31;34382;-63
2023/05/03 09:25:53;;;;;;;5.30;3.17;;;;;;;21.90;51.87;100020.47;4494727;31;34048;-63
2023/05/03 09:28:21;;;;;;;7.37;4.05;;;;;;;21.84;51.99;100014.72;4496383;31;34312;-63
2023/05/03 09:30:49;;;;;;;5.07;3.55;;;;;;;21.61;52.08;100014.69;4488078;31;33492;-63
2023/05/03 09:33:28;;;;;;;7.12;3.58;;;;;;;21.61;53.34;100008.41;4499371;31;33583;-62
2023/05/03 09:36:01;;;;;;;4.60;2.80;;;;;;;21.37;53.44;100023.81;4499204;31;34848;-63
2023/05/03 09:38:31;;;;;;;5.65;2.90;;;;;;;20.97;54.05;100024.84;4489937;31;35191;-63
2023/05/03 09:41:00;;;;;;;9.05;3.65;;;;;;;21.07;52.42;100011.88;4491906;31;34889;-63
2023/05/03 09:43:28;;;;;;;5.55;3.97;;;;;;;21.08;53.65;100021.72;4493651;31;34747;-62
2023/05/03 09:46:12;;;;;;;4.55;3.47;;;;;;;21.73;52.10;100009.66;4495837;31;33696;-63
2023/05/03 09:48:40;;;;;;;5.05;2.75;;;;;;;21.17;54.86;100011.66;4498455;31;33969;-63
2023/05/03 09:51:10;;;;;;;4.85;3.00;;;;;;;21.90;53.11;100010.41;4497010;31;34257;-63
2023/05/03 09:53:39;;;;;;;5.60;3.25;;;;;;;21.69;54.01;100012.94;4485550;31;33501;-63
2023/05/03 09:56:11;;;;;;;4.62;3.28;;;;;;;21.38;53.81;100017.38;4490430;31;33853;-63
2023/05/03 09:58:41;;;;;;;5.12;3.28;;;;;;;21.67;52.73;100018.59;4498719;31;34721;-63
2023/05/03 10:01:09;;;;;;;8.60;4.95;;;;;;;22.18;50.89;100009.87;4491823;31;34244;-63
2023/05/03 10:03:40;;;;;;;7.68;4.12;;;;;;;22.04;50.69;100006.87;4490613;31;33921;-62
2023/05/03 10:06:25;;;;;;;8.45;2.62;;;;;;;22.28;50.08;100010.50;4494051;31;33901;-63
2023/05/03 10:09:11;;;;;;;5.57;3.22;;;;;;;22.45;50.37;100003.84;4496178;31;35041;-62
2023/05/03 10:11:39;;;;;;;6.03;3.10;;;;;;;22.52;49.46;100004.78;4498812;31;33973;-63
2023/05/03 10:14:07;;;;;;;6.75;3.55;;;;;;;22.54;50.24;100008.19;4487479;31;33190;-62
2023/05/03 10:16:37;;;;;;;5.95;4.20;;;;;;;22.29;50.49;100001.28;4487227;31;33841;-64
2023/05/03 10:19:24;;;;;;;6.72;4.12;;;;;;;22.52;50.03;99998.50;4484588;31;33201;-63
2023/05/03 10:21:58;;;;;;;6.37;3.30;;;;;;;22.10;50.96;99999.88;4490485;31;34034;-61
2023/05/03 10:24:26;;;;;;;4.80;3.25;;;;;;;21.79;51.43;100002.66;4498108;31;33450;-62
2023/05/03 10:26:56;;;;;;;8.68;3.97;;;;;;;22.17;51.45;100008.19;4490445;31;33732;-63
2023/05/03 10:29:46;;;;;;;6.00;3.95;;;;;;;21.96;51.36;100001.53;4490110;31;33427;-62
2023/05/03 10:32:27;;;;;;;7.37;3.80;;;;;;;21.77;52.14;100005.56;4484514;31;34239;-62
2023/05/03 10:35:09;;;;;;;6.30;4.25;;;;;;;22.04;51.84;99997.88;4486484;31;34016;-63
2023/05/03 10:37:39;;;;;;;8.50;4.25;;;;;;;21.48;54.09;99999.97;4487382;31;33843;-63
2023/05/03 10:40:11;;;;;;;5.55;2.78;;;;;;;21.50;53.49;100001.47;4486847;31;35173;-62
2023/05/03 10:43:03;;;;;;;4.18;3.25;;;;;;;21.80;54.05;99994.31;4498035;31;33872;-62
2023/05/03 10:45:32;;;;;;;5.90;3.95;;;;;;;21.97;52.55;99986.00;4497081;31;33427;-62
2023/05/03 10:48:11;;;;;;;4.65;3.00;;;;;;;21.81;52.95;99984.25;4486501;31;35306;-62
2023/05/03 10:50:40;;;;;;;5.00;2.87;;;;;;;22.06;52.43;99983.03;4487148;31;33877;-62
2023/05/03 10:53:37;;;;;;;6.07;3.90;;;;;;;21.42;53.49;99981.62;4494293;31;33971;-63
2023/05/03 10:56:07;;;;;;;5.47;3.55;;;;;;;22.07;52.39;99981.16;4493440;31;33552;-62
2023/05/03 10:58:55;;;;;;;6.45;4.35;;;;;;;21.95;52.64;99982.59;4483749;31;32611;-62
2023/05/03 11:01:23;;;;;;;7.65;3.80;;;;;;;21.58;53.93;99986.97;4487440;31;35227;-62
2023/05/03 11:04:02;;;;;;;17.67;3.55;;;;;;;22.17;51.69;99986.37;4485249;31;34498;-62
2023/05/03 11:06:33;;;;;;;4.85;3.20;;;;;;;21.94;52.47;99991.81;4483447;31;33183;-62
2023/05/03 11:09:03;;;;;;;5.07;3.55;;;;;;;22.14;52.23;99984.81;4489989;31;34124;-62
2023/05/03 11:11:31;;;;;;;6.40;3.80;;;;;;;21.90;52.95;99982.31;4491088;31;31801;-62
2023/05/03 11:13:58;;;;;;;5.80;2.80;;;;;;;22.05;52.39;99978.63;4497988;31;34076;-62
2023/05/03 11:16:27;;;;;;;8.35;3.17;;;;;;;22.19;52.26;99985.16;4494801;31;34042;-62
2023/05/03 11:18:55;;;;;;;7.68;3.25;;;;;;;22.02;52.13;99989.88;4494934;31;34757;-62
2023/05/03 11:21:22;;;;;;;12.05;4.18;;;;;;;22.41;51.42;99988.88;4484880;31;33910;-62
2023/05/03 11:23:50;;;;;;;4.20;3.05;;;;;;;22.67;49.88;99993.06;4491965;31;34307;-62
2023/05/03 11:26:20;;;;;;;5.07;2.95;;;;;;;22.46;50.71;99991.88;4493912;31;34726;-62
2023/05/03 11:28:47;;;;;;;5.65;3.25;;;;;;;22.51;51.17;99985.91;4494968;31;34081;-62
2023/05/03 11:31:15;;;;;;;6.70;4.43;;;;;;;22.27;52.24;99986.97;4492921;31;33992;-62
2023/05/03 11:33:42;;;;;;;5.57;4.05;;;;;;;22.13;52.68;99985.03;4483196;31;34585;-62
2023/05/03 11:36:13;;;;;;;6.43;4.72;;;;;;;22.39;51.95;99988.22;4490232;31;33631;-62
2023/05/03 11:38:41;;;;;;;6.03;3.80;;;;;;;22.28;52.40;99991.41;4497016;31;34637;-62
2023/05/03 11:41:16;;;;;;;7.35;4.37;;;;;;;22.00;52.79;99986.50;4493157;31;33818;-62